This is the latest recevied weather packets stored in our database for station/object WV5G-13. If no packets are shown the sender has not sent any weather packets the latest 10 day(s).
| Time | Temp. | Humidity | Pressure | Rain* | Wind** | Luminosity | Snow |
|---|---|---|---|---|---|---|---|
| 1778094845 | 12.78° C | 52% | 1013.7 hPa | 0 mm | - | 986 W/m² | - |
| 1778094543 | 12.78° C | 51% | 1013.8 hPa | 0 mm | - | 727 W/m² | - |
| 1778094239 | 14.44° C | 49% | 1013.7 hPa | 0 mm | - | 1060 W/m² | - |
| 1778093936 | 14.44° C | 50% | 1013.6 hPa | 0 mm | - | 1244 W/m² | - |
| 1778093633 | 13.89° C | 52% | 1013.5 hPa | 0 mm | - | 1017 W/m² | - |
| 1778093330 | 12.22° C | 54% | 1013.9 hPa | 0 mm | - | 406 W/m² | - |
| 1778093026 | 12.22° C | 55% | 1014.1 hPa | 0 mm | - | 450 W/m² | - |
| 1778092724 | 12.78° C | 53% | 1014.2 hPa | 0 mm | - | 383 W/m² | - |
| 1778092419 | 13.33° C | 52% | 1014 hPa | 0 mm | - | 1064 W/m² | - |
| 1778092117 | 13.33° C | 52% | 1014.2 hPa | 0 mm | - | 1149 W/m² | - |
| 1778091814 | 12.22° C | 56% | 1014.3 hPa | 0 mm | - | 1136 W/m² | - |
| 1778091511 | 11.67° C | 56% | 1014.8 hPa | 0 mm | - | 294 W/m² | - |
| 1778091209 | 12.78° C | 54% | 1014.2 hPa | 0 mm | - | 497 W/m² | - |
| 1778090906 | 11.67° C | 56% | 1014.3 hPa | 0 mm | - | 487 W/m² | - |
| 1778090602 | 11.11° C | 58% | 1014.7 hPa | 0 mm | - | 566 W/m² | - |
| 1778090298 | 11.11° C | 57% | 1014.6 hPa | 0 mm | - | 458 W/m² | - |
| 1778089995 | 12.22° C | 55% | 1014.6 hPa | 0 mm | - | 472 W/m² | - |
| 1778089692 | 11.67° C | 57% | 1014.5 hPa | 0 mm | - | 597 W/m² | - |
| 1778089389 | 11.67° C | 58% | 1015 hPa | 0 mm | - | 475 W/m² | - |
| 1778089087 | 10.56° C | 60% | 1014.7 hPa | 0 mm | - | 424 W/m² | - |
| 1778088783 | 11.11° C | 59% | 1014.7 hPa | 0 mm | - | 472 W/m² | - |
| 1778088481 | 11.67° C | 57% | 1014.8 hPa | 0 mm | - | 408 W/m² | - |
| 1778088177 | 12.22° C | 57% | 1014.5 hPa | 0 mm | - | 1078 W/m² | - |
| 1778087875 | 11.11° C | 59% | 1014.6 hPa | 0 mm | - | 702 W/m² | - |
| 1778087572 | 11.11° C | 59% | 1014.7 hPa | 0 mm | - | 1203 W/m² | - |
* Rain latest hour (hover to see other rain measurements)
** Current wind speed in m/s (hover to see current wind gust speed)